sensor_id;sensor_type;location;lat;lon;timestamp;P1;P2;P0
34240;PMS7003;20503;50.200;19.508;2023-05-29T00:02:42;2;1;0
34240;PMS7003;20503;50.200;19.508;2023-05-29T00:07:50;3;1;1
34240;PMS7003;20503;50.200;19.508;2023-05-29T00:12:58;1;0;0
34240;PMS7003;20503;50.200;19.508;2023-05-29T00:18:06;1;1;1
34240;PMS7003;20503;50.200;19.508;2023-05-29T00:23:15;0;0;0
34240;PMS7003;20503;50.200;19.508;2023-05-29T00:28:23;1;0;0
34240;PMS7003;20503;50.200;19.508;2023-05-29T00:33:31;1;1;1
34240;PMS7003;20503;50.200;19.508;2023-05-29T00:38:39;1;0;0
34240;PMS7003;20503;50.200;19.508;2023-05-29T00:43:47;2;1;1
34240;PMS7003;20503;50.200;19.508;2023-05-29T00:48:55;0;0;0
34240;PMS7003;20503;50.200;19.508;2023-05-29T00:54:04;2;1;1
34240;PMS7003;20503;50.200;19.508;2023-05-29T00:59:11;0;0;0
34240;PMS7003;20503;50.200;19.508;2023-05-29T01:04:19;1;1;0
34240;PMS7003;20503;50.200;19.508;2023-05-29T01:09:28;2;0;0
34240;PMS7003;20503;50.200;19.508;2023-05-29T01:14:41;2;1;1
34240;PMS7003;20503;50.200;19.508;2023-05-29T01:30:18;2;1;1
34240;PMS7003;20503;50.200;19.508;2023-05-29T01:35:22;1;0;0
34240;PMS7003;20503;50.200;19.508;2023-05-29T01:40:23;0;0;0
34240;PMS7003;20503;50.200;19.508;2023-05-29T01:45:24;1;1;1
34240;PMS7003;20503;50.200;19.508;2023-05-29T01:50:32;3;2;2
34240;PMS7003;20503;50.200;19.508;2023-05-29T01:55:41;5;2;1
34240;PMS7003;20503;50.200;19.508;2023-05-29T02:00:48;1;1;1
34240;PMS7003;20503;50.200;19.508;2023-05-29T02:05:59;3;1;0
34240;PMS7003;20503;50.200;19.508;2023-05-29T02:11:03;1;1;0
34240;PMS7003;20503;50.200;19.508;2023-05-29T02:16:10;5;2;2
34240;PMS7003;20503;50.200;19.508;2023-05-29T02:21:17;5;5;4
34240;PMS7003;20503;50.200;19.508;2023-05-29T02:26:25;7;6;5
34240;PMS7003;20503;50.200;19.508;2023-05-29T02:31:33;5;5;4
34240;PMS7003;20503;50.200;19.508;2023-05-29T02:36:40;5;5;3
34240;PMS7003;20503;50.200;19.508;2023-05-29T02:41:48;5;5;5
34240;PMS7003;20503;50.200;19.508;2023-05-29T02:46:56;6;6;4
34240;PMS7003;20503;50.200;19.508;2023-05-29T02:52:03;5;3;3
34240;PMS7003;20503;50.200;19.508;2023-05-29T02:57:11;6;4;3
34240;PMS7003;20503;50.200;19.508;2023-05-29T03:02:18;5;4;4
34240;PMS7003;20503;50.200;19.508;2023-05-29T03:07:26;8;3;2
34240;PMS7003;20503;50.200;19.508;2023-05-29T03:12:33;11;8;7
34240;PMS7003;20503;50.200;19.508;2023-05-29T03:17:41;11;9;6
34240;PMS7003;20503;50.200;19.508;2023-05-29T03:22:48;7;7;6
34240;PMS7003;20503;50.200;19.508;2023-05-29T03:27:56;11;8;6
34240;PMS7003;20503;50.200;19.508;2023-05-29T03:33:04;8;6;5
34240;PMS7003;20503;50.200;19.508;2023-05-29T03:38:12;8;8;6
34240;PMS7003;20503;50.200;19.508;2023-05-29T03:43:20;11;8;6
34240;PMS7003;20503;50.200;19.508;2023-05-29T03:48:27;7;5;3
34240;PMS7003;20503;50.200;19.508;2023-05-29T03:53:34;5;4;2
34240;PMS7003;20503;50.200;19.508;2023-05-29T03:58:42;6;3;2
34240;PMS7003;20503;50.200;19.508;2023-05-29T04:03:49;4;2;2
34240;PMS7003;20503;50.200;19.508;2023-05-29T04:08:57;6;5;3
34240;PMS7003;20503;50.200;19.508;2023-05-29T04:14:04;6;3;3
34240;PMS7003;20503;50.200;19.508;2023-05-29T04:19:12;4;4;3
34240;PMS7003;20503;50.200;19.508;2023-05-29T04:24:19;4;4;3
34240;PMS7003;20503;50.200;19.508;2023-05-29T04:29:26;6;5;3
34240;PMS7003;20503;50.200;19.508;2023-05-29T04:34:34;6;4;3
34240;PMS7003;20503;50.200;19.508;2023-05-29T04:39:42;2;2;2
34240;PMS7003;20503;50.200;19.508;2023-05-29T04:44:51;4;4;4
34240;PMS7003;20503;50.200;19.508;2023-05-29T04:50:01;6;6;5
34240;PMS7003;20503;50.200;19.508;2023-05-29T04:55:06;6;4;2
34240;PMS7003;20503;50.200;19.508;2023-05-29T05:00:14;3;3;3
34240;PMS7003;20503;50.200;19.508;2023-05-29T05:05:22;2;2;2
34240;PMS7003;20503;50.200;19.508;2023-05-29T05:10:29;2;2;2
34240;PMS7003;20503;50.200;19.508;2023-05-29T05:15:37;2;2;2
34240;PMS7003;20503;50.200;19.508;2023-05-29T05:20:45;2;2;2
34240;PMS7003;20503;50.200;19.508;2023-05-29T05:25:53;6;4;4
34240;PMS7003;20503;50.200;19.508;2023-05-29T05:31:01;6;5;4
34240;PMS7003;20503;50.200;19.508;2023-05-29T05:36:08;6;5;4
34240;PMS7003;20503;50.200;19.508;2023-05-29T05:41:16;4;4;3
34240;PMS7003;20503;50.200;19.508;2023-05-29T05:46:24;4;3;2
34240;PMS7003;20503;50.200;19.508;2023-05-29T05:51:32;3;3;2
34240;PMS7003;20503;50.200;19.508;2023-05-29T05:56:39;2;2;1
34240;PMS7003;20503;50.200;19.508;2023-05-29T06:01:47;3;2;2
34240;PMS7003;20503;50.200;19.508;2023-05-29T06:06:54;1;1;1
34240;PMS7003;20503;50.200;19.508;2023-05-29T06:12:02;1;1;1
34240;PMS7003;20503;50.200;19.508;2023-05-29T06:17:09;4;3;2
34240;PMS7003;20503;50.200;19.508;2023-05-29T06:22:17;1;1;1
34240;PMS7003;20503;50.200;19.508;2023-05-29T06:27:24;3;2;2
34240;PMS7003;20503;50.200;19.508;2023-05-29T06:32:31;3;2;1
34240;PMS7003;20503;50.200;19.508;2023-05-29T06:37:38;3;3;2
34240;PMS7003;20503;50.200;19.508;2023-05-29T06:42:45;5;2;2
34240;PMS7003;20503;50.200;19.508;2023-05-29T06:47:54;5;3;2
34240;PMS7003;20503;50.200;19.508;2023-05-29T06:53:02;4;2;2
34240;PMS7003;20503;50.200;19.508;2023-05-29T06:58:10;2;1;1
34240;PMS7003;20503;50.200;19.508;2023-05-29T07:03:18;0;0;0
34240;PMS7003;20503;50.200;19.508;2023-05-29T07:08:27;5;2;2
34240;PMS7003;20503;50.200;19.508;2023-05-29T07:13:34;1;1;0
34240;PMS7003;20503;50.200;19.508;2023-05-29T07:18:42;1;1;1
34240;PMS7003;20503;50.200;19.508;2023-05-29T07:23:50;3;2;2
34240;PMS7003;20503;50.200;19.508;2023-05-29T07:28:58;2;1;1
34240;PMS7003;20503;50.200;19.508;2023-05-29T07:34:06;3;1;1
34240;PMS7003;20503;50.200;19.508;2023-05-29T07:39:14;2;1;1
34240;PMS7003;20503;50.200;19.508;2023-05-29T07:44:22;1;1;1
34240;PMS7003;20503;50.200;19.508;2023-05-29T07:49:30;1;1;1
34240;PMS7003;20503;50.200;19.508;2023-05-29T07:54:38;4;1;1
34240;PMS7003;20503;50.200;19.508;2023-05-29T07:59:46;0;0;0
34240;PMS7003;20503;50.200;19.508;2023-05-29T08:04:54;2;1;0
34240;PMS7003;20503;50.200;19.508;2023-05-29T08:10:04;1;1;1
34240;PMS7003;20503;50.200;19.508;2023-05-29T08:15:10;1;1;1
34240;PMS7003;20503;50.200;19.508;2023-05-29T08:20:18;0;0;0
34240;PMS7003;20503;50.200;19.508;2023-05-29T08:25:26;1;1;1
34240;PMS7003;20503;50.200;19.508;2023-05-29T08:30:34;2;0;0
34240;PMS7003;20503;50.200;19.508;2023-05-29T08:35:42;3;2;1
34240;PMS7003;20503;50.200;19.508;2023-05-29T08:40:51;2;1;1
34240;PMS7003;20503;50.200;19.508;2023-05-29T08:46:01;2;0;0
34240;PMS7003;20503;50.200;19.508;2023-05-29T08:51:05;1;1;0
34240;PMS7003;20503;50.200;19.508;2023-05-29T08:56:13;2;2;2
34240;PMS7003;20503;50.200;19.508;2023-05-29T09:01:20;1;1;1
34240;PMS7003;20503;50.200;19.508;2023-05-29T09:06:28;2;2;1
34240;PMS7003;20503;50.200;19.508;2023-05-29T09:11:37;1;1;0
34240;PMS7003;20503;50.200;19.508;2023-05-29T09:16:44;1;1;1
34240;PMS7003;20503;50.200;19.508;2023-05-29T09:21:59;2;1;0
34240;PMS7003;20503;50.200;19.508;2023-05-29T09:27:06;0;0;0
34240;PMS7003;20503;50.200;19.508;2023-05-29T09:32:10;1;1;1
34240;PMS7003;20503;50.200;19.508;2023-05-29T09:37:16;1;0;0
34240;PMS7003;20503;50.200;19.508;2023-05-29T09:42:24;1;1;0
34240;PMS7003;20503;50.200;19.508;2023-05-29T09:47:33;2;2;2
34240;PMS7003;20503;50.200;19.508;2023-05-29T09:52:40;2;2;1
34240;PMS7003;20503;50.200;19.508;2023-05-29T09:57:48;2;1;1
34240;PMS7003;20503;50.200;19.508;2023-05-29T10:02:55;4;3;2
34240;PMS7003;20503;50.200;19.508;2023-05-29T10:08:02;2;0;0
34240;PMS7003;20503;50.200;19.508;2023-05-29T10:13:13;1;1;0
34240;PMS7003;20503;50.200;19.508;2023-05-29T10:18:21;1;0;0
34240;PMS7003;20503;50.200;19.508;2023-05-29T10:23:25;2;2;2
34240;PMS7003;20503;50.200;19.508;2023-05-29T10:28:32;2;2;1
34240;PMS7003;20503;50.200;19.508;2023-05-29T10:38:52;1;1;1
34240;PMS7003;20503;50.200;19.508;2023-05-29T10:43:54;2;1;1
34240;PMS7003;20503;50.200;19.508;2023-05-29T10:49:01;2;1;1
34240;PMS7003;20503;50.200;19.508;2023-05-29T10:54:08;3;2;2
34240;PMS7003;20503;50.200;19.508;2023-05-29T10:59:16;2;2;2
34240;PMS7003;20503;50.200;19.508;2023-05-29T11:04:26;3;3;2
34240;PMS7003;20503;50.200;19.508;2023-05-29T11:09:32;11;11;6
34240;PMS7003;20503;50.200;19.508;2023-05-29T11:19:51;4;3;2
34240;PMS7003;20503;50.200;19.508;2023-05-29T11:24:54;1;1;0
34240;PMS7003;20503;50.200;19.508;2023-05-29T11:30:00;3;2;1
34240;PMS7003;20503;50.200;19.508;2023-05-29T11:35:08;2;2;1
34240;PMS7003;20503;50.200;19.508;2023-05-29T11:40:15;3;2;1
34240;PMS7003;20503;50.200;19.508;2023-05-29T11:45:23;3;3;2
34240;PMS7003;20503;50.200;19.508;2023-05-29T11:50:30;5;3;3
34240;PMS7003;20503;50.200;19.508;2023-05-29T11:55:37;4;3;2
34240;PMS7003;20503;50.200;19.508;2023-05-29T12:00:45;1;1;1
34240;PMS7003;20503;50.200;19.508;2023-05-29T12:05:52;1;1;1
34240;PMS7003;20503;50.200;19.508;2023-05-29T12:11:00;2;2;2
34240;PMS7003;20503;50.200;19.508;2023-05-29T12:16:07;2;2;1
34240;PMS7003;20503;50.200;19.508;2023-05-29T12:21:14;4;1;1
34240;PMS7003;20503;50.200;19.508;2023-05-29T12:26:22;4;3;2
34240;PMS7003;20503;50.200;19.508;2023-05-29T12:31:29;2;2;2
34240;PMS7003;20503;50.200;19.508;2023-05-29T12:36:39;6;2;1
34240;PMS7003;20503;50.200;19.508;2023-05-29T12:41:47;3;2;2
34240;PMS7003;20503;50.200;19.508;2023-05-29T12:46:55;4;3;2
34240;PMS7003;20503;50.200;19.508;2023-05-29T12:52:04;3;3;2
34240;PMS7003;20503;50.200;19.508;2023-05-29T12:57:10;2;2;2
34240;PMS7003;20503;50.200;19.508;2023-05-29T13:02:14;3;2;2
34240;PMS7003;20503;50.200;19.508;2023-05-29T13:07:21;4;4;3
34240;PMS7003;20503;50.200;19.508;2023-05-29T13:12:29;3;2;2
34240;PMS7003;20503;50.200;19.508;2023-05-29T13:17:37;5;3;2
34240;PMS7003;20503;50.200;19.508;2023-05-29T13:22:44;4;4;2
34240;PMS7003;20503;50.200;19.508;2023-05-29T13:27:51;6;4;3
34240;PMS7003;20503;50.200;19.508;2023-05-29T13:32:59;3;3;2
34240;PMS7003;20503;50.200;19.508;2023-05-29T13:38:06;6;4;3
34240;PMS7003;20503;50.200;19.508;2023-05-29T13:43:14;3;2;2
34240;PMS7003;20503;50.200;19.508;2023-05-29T13:48:21;3;1;1
34240;PMS7003;20503;50.200;19.508;2023-05-29T13:53:28;3;3;3
34240;PMS7003;20503;50.200;19.508;2023-05-29T13:58:36;4;3;2
34240;PMS7003;20503;50.200;19.508;2023-05-29T14:03:43;4;3;2
34240;PMS7003;20503;50.200;19.508;2023-05-29T14:08:51;3;3;2
34240;PMS7003;20503;50.200;19.508;2023-05-29T14:13:58;5;2;2
34240;PMS7003;20503;50.200;19.508;2023-05-29T14:19:06;3;3;2
34240;PMS7003;20503;50.200;19.508;2023-05-29T14:24:13;2;2;2
34240;PMS7003;20503;50.200;19.508;2023-05-29T14:29:21;6;4;3
34240;PMS7003;20503;50.200;19.508;2023-05-29T14:34:28;5;3;3
34240;PMS7003;20503;50.200;19.508;2023-05-29T14:39:36;3;3;2
34240;PMS7003;20503;50.200;19.508;2023-05-29T14:44:43;4;3;2
34240;PMS7003;20503;50.200;19.508;2023-05-29T14:49:50;4;3;3
34240;PMS7003;20503;50.200;19.508;2023-05-29T14:54:59;3;3;2
34240;PMS7003;20503;50.200;19.508;2023-05-29T15:00:07;4;4;3
34240;PMS7003;20503;50.200;19.508;2023-05-29T15:05:13;4;4;3
34240;PMS7003;20503;50.200;19.508;2023-05-29T15:10:20;4;4;3
34240;PMS7003;20503;50.200;19.508;2023-05-29T15:15:28;5;4;3
34240;PMS7003;20503;50.200;19.508;2023-05-29T15:20:35;5;3;2
34240;PMS7003;20503;50.200;19.508;2023-05-29T15:25:43;5;4;2
34240;PMS7003;20503;50.200;19.508;2023-05-29T15:30:51;4;4;3
34240;PMS7003;20503;50.200;19.508;2023-05-29T15:35:58;4;3;1
34240;PMS7003;20503;50.200;19.508;2023-05-29T15:41:05;3;3;3
34240;PMS7003;20503;50.200;19.508;2023-05-29T15:46:13;4;3;1
34240;PMS7003;20503;50.200;19.508;2023-05-29T15:51:20;5;3;2
34240;PMS7003;20503;50.200;19.508;2023-05-29T15:56:28;5;5;4
34240;PMS7003;20503;50.200;19.508;2023-05-29T16:01:35;5;3;3
34240;PMS7003;20503;50.200;19.508;2023-05-29T16:06:44;12;11;7
34240;PMS7003;20503;50.200;19.508;2023-05-29T16:11:52;13;12;8
34240;PMS7003;20503;50.200;19.508;2023-05-29T16:17:00;14;12;9
34240;PMS7003;20503;50.200;19.508;2023-05-29T16:22:08;3;3;2
34240;PMS7003;20503;50.200;19.508;2023-05-29T16:27:15;6;5;4
34240;PMS7003;20503;50.200;19.508;2023-05-29T16:32:23;7;5;4
34240;PMS7003;20503;50.200;19.508;2023-05-29T16:37:30;5;4;3
34240;PMS7003;20503;50.200;19.508;2023-05-29T16:42:38;5;5;4
34240;PMS7003;20503;50.200;19.508;2023-05-29T16:47:46;6;5;4
34240;PMS7003;20503;50.200;19.508;2023-05-29T16:56:42;9;8;6
34240;PMS7003;20503;50.200;19.508;2023-05-29T17:01:49;11;8;6
34240;PMS7003;20503;50.200;19.508;2023-05-29T17:06:57;11;11;9
34240;PMS7003;20503;50.200;19.508;2023-05-29T17:12:05;14;11;10
34240;PMS7003;20503;50.200;19.508;2023-05-29T17:17:12;13;11;8
34240;PMS7003;20503;50.200;19.508;2023-05-29T17:22:21;17;15;11
34240;PMS7003;20503;50.200;19.508;2023-05-29T17:27:28;17;16;14
34240;PMS7003;20503;50.200;19.508;2023-05-29T17:32:36;28;24;19
34240;PMS7003;20503;50.200;19.508;2023-05-29T17:37:44;29;24;17
34240;PMS7003;20503;50.200;19.508;2023-05-29T17:42:52;30;23;15
34240;PMS7003;20503;50.200;19.508;2023-05-29T17:48:00;27;25;16
34240;PMS7003;20503;50.200;19.508;2023-05-29T17:53:08;20;20;16
34240;PMS7003;20503;50.200;19.508;2023-05-29T17:58:16;23;19;14
34240;PMS7003;20503;50.200;19.508;2023-05-29T18:03:24;23;21;15
34240;PMS7003;20503;50.200;19.508;2023-05-29T18:08:32;21;20;15
34240;PMS7003;20503;50.200;19.508;2023-05-29T18:13:40;23;19;14
34240;PMS7003;20503;50.200;19.508;2023-05-29T18:18:48;24;21;15
34240;PMS7003;20503;50.200;19.508;2023-05-29T18:23:56;28;26;18
34240;PMS7003;20503;50.200;19.508;2023-05-29T18:29:04;35;30;19
34240;PMS7003;20503;50.200;19.508;2023-05-29T18:34:11;39;30;21
34240;PMS7003;20503;50.200;19.508;2023-05-29T18:39:19;36;30;20
34240;PMS7003;20503;50.200;19.508;2023-05-29T18:44:26;33;29;20
34240;PMS7003;20503;50.200;19.508;2023-05-29T18:49:34;26;24;17
34240;PMS7003;20503;50.200;19.508;2023-05-29T18:54:42;27;21;16
34240;PMS7003;20503;50.200;19.508;2023-05-29T18:59:50;36;28;18
34240;PMS7003;20503;50.200;19.508;2023-05-29T19:04:58;26;21;17
34240;PMS7003;20503;50.200;19.508;2023-05-29T19:10:06;24;21;16
34240;PMS7003;20503;50.200;19.508;2023-05-29T19:15:14;34;30;20
34240;PMS7003;20503;50.200;19.508;2023-05-29T19:20:21;32;27;19
34240;PMS7003;20503;50.200;19.508;2023-05-29T19:25:29;39;29;18
34240;PMS7003;20503;50.200;19.508;2023-05-29T19:30:37;35;27;18
34240;PMS7003;20503;50.200;19.508;2023-05-29T19:35:45;34;27;18
34240;PMS7003;20503;50.200;19.508;2023-05-29T19:40:54;29;24;17
34240;PMS7003;20503;50.200;19.508;2023-05-29T19:46:01;39;31;20
34240;PMS7003;20503;50.200;19.508;2023-05-29T19:51:09;32;26;17
34240;PMS7003;20503;50.200;19.508;2023-05-29T19:56:16;30;26;19
34240;PMS7003;20503;50.200;19.508;2023-05-29T20:01:24;33;27;19
34240;PMS7003;20503;50.200;19.508;2023-05-29T20:06:32;34;28;19
34240;PMS7003;20503;50.200;19.508;2023-05-29T20:11:40;35;29;18
34240;PMS7003;20503;50.200;19.508;2023-05-29T20:16:48;38;30;20
34240;PMS7003;20503;50.200;19.508;2023-05-29T20:21:56;36;27;17
34240;PMS7003;20503;50.200;19.508;2023-05-29T20:27:05;31;23;17
34240;PMS7003;20503;50.200;19.508;2023-05-29T20:32:12;33;25;18
34240;PMS7003;20503;50.200;19.508;2023-05-29T20:37:20;29;25;16
34240;PMS7003;20503;50.200;19.508;2023-05-29T20:42:27;36;28;18
34240;PMS7003;20503;50.200;19.508;2023-05-29T20:47:35;31;26;18
34240;PMS7003;20503;50.200;19.508;2023-05-29T20:52:42;31;26;17
34240;PMS7003;20503;50.200;19.508;2023-05-29T20:57:49;37;27;17
34240;PMS7003;20503;50.200;19.508;2023-05-29T21:02:57;39;29;20
34240;PMS7003;20503;50.200;19.508;2023-05-29T21:08:06;42;32;19
34240;PMS7003;20503;50.200;19.508;2023-05-29T21:13:15;30;23;16
34240;PMS7003;20503;50.200;19.508;2023-05-29T21:18:21;34;27;18
34240;PMS7003;20503;50.200;19.508;2023-05-29T21:23:28;30;26;18
34240;PMS7003;20503;50.200;19.508;2023-05-29T21:28:36;28;24;15
34240;PMS7003;20503;50.200;19.508;2023-05-29T21:33:44;46;34;21
34240;PMS7003;20503;50.200;19.508;2023-05-29T21:38:51;38;29;20
34240;PMS7003;20503;50.200;19.508;2023-05-29T21:43:59;33;26;18
34240;PMS7003;20503;50.200;19.508;2023-05-29T21:49:07;36;28;16
34240;PMS7003;20503;50.200;19.508;2023-05-29T21:54:15;30;26;16
34240;PMS7003;20503;50.200;19.508;2023-05-29T21:59:22;19;16;11
34240;PMS7003;20503;50.200;19.508;2023-05-29T22:04:30;19;15;12
34240;PMS7003;20503;50.200;19.508;2023-05-29T22:09:38;40;31;19
34240;PMS7003;20503;50.200;19.508;2023-05-29T22:14:45;49;37;23
34240;PMS7003;20503;50.200;19.508;2023-05-29T22:19:53;43;35;22
34240;PMS7003;20503;50.200;19.508;2023-05-29T22:25:00;38;29;20
34240;PMS7003;20503;50.200;19.508;2023-05-29T22:30:09;36;29;19
34240;PMS7003;20503;50.200;19.508;2023-05-29T22:35:16;35;26;18
34240;PMS7003;20503;50.200;19.508;2023-05-29T22:40:24;43;32;20
34240;PMS7003;20503;50.200;19.508;2023-05-29T22:45:33;39;30;18
34240;PMS7003;20503;50.200;19.508;2023-05-29T22:50:40;30;26;18
34240;PMS7003;20503;50.200;19.508;2023-05-29T22:55:48;39;30;18
34240;PMS7003;20503;50.200;19.508;2023-05-29T23:00:55;36;28;19
34240;PMS7003;20503;50.200;19.508;2023-05-29T23:06:03;35;24;17
34240;PMS7003;20503;50.200;19.508;2023-05-29T23:11:11;37;29;18
34240;PMS7003;20503;50.200;19.508;2023-05-29T23:16:19;39;29;18
34240;PMS7003;20503;50.200;19.508;2023-05-29T23:21:27;26;19;12
34240;PMS7003;20503;50.200;19.508;2023-05-29T23:26:34;21;18;14
34240;PMS7003;20503;50.200;19.508;2023-05-29T23:31:42;37;31;19
34240;PMS7003;20503;50.200;19.508;2023-05-29T23:36:51;29;25;16
34240;PMS7003;20503;50.200;19.508;2023-05-29T23:41:58;30;24;17
34240;PMS7003;20503;50.200;19.508;2023-05-29T23:47:06;32;27;19
34240;PMS7003;20503;50.200;19.508;2023-05-29T23:52:13;30;24;18
34240;PMS7003;20503;50.200;19.508;2023-05-29T23:57:22;30;24;15
